Time,TemperatureF,DewpointF,PressureIn,WindDirection,WindDirectionDegrees,WindSpeedMPH,WindSpeedGustMPH,Humidity,HourlyPrecipIn,Conditions,Clouds,dailyrainin,SoftwareType,DateUTC
2013-04-25 00:25:00,38.2,32.6,30.30,West,270,0.0,0.0,80,0.00,CLR,,0.00,WeatherDisplay:10.37,2013-04-25 04:25:00,
2013-04-25 00:40:00,38.1,32.5,30.31,West,270,0.0,0.0,80,0.00,CLR,,0.00,WeatherDisplay:10.37,2013-04-25 04:40:00,
2013-04-25 00:55:00,38.1,32.5,30.31,West,270,0.0,0.0,80,0.00,CLR,,0.00,WeatherDisplay:10.37,2013-04-25 04:55:00,
2013-04-25 01:25:00,36.7,31.4,30.31,West,270,0.0,0.0,81,0.00,CLR,,0.00,WeatherDisplay:10.37,2013-04-25 05:25:00,
2013-04-25 01:40:00,36.6,31.6,30.30,West,270,0.0,0.0,82,0.00,CLR,,0.00,WeatherDisplay:10.37,2013-04-25 05:40:00,
2013-04-25 01:55:00,36.5,31.5,30.30,West,270,0.0,0.0,82,0.00,CLR,,0.00,WeatherDisplay:10.37,2013-04-25 05:55:00,
2013-04-25 02:25:00,35.2,30.6,30.29,West,270,0.0,0.0,83,0.00,CLR,,0.00,WeatherDisplay:10.37,2013-04-25 06:25:00,
2013-04-25 02:40:00,35.0,30.7,30.29,West,270,0.0,0.0,84,0.00,CLR,,0.00,WeatherDisplay:10.37,2013-04-25 06:40:00,
2013-04-25 02:55:00,34.9,30.8,30.29,West,270,0.0,0.0,85,0.00,CLR,,0.00,WeatherDisplay:10.37,2013-04-25 06:55:00,
2013-04-25 03:25:00,34.4,30.4,30.29,West,270,0.0,1.0,85,0.00,CLR,,0.00,WeatherDisplay:10.37,2013-04-25 07:25:00,
2013-04-25 03:40:00,33.6,29.6,30.30,West,270,0.0,0.0,85,0.00,CLR,,0.00,WeatherDisplay:10.37,2013-04-25 07:40:00,
2013-04-25 03:55:00,33.7,30.0,30.30,West,270,0.0,0.0,86,0.00,CLR,,0.00,WeatherDisplay:10.37,2013-04-25 07:55:00,
2013-04-25 04:25:00,34.0,30.3,30.31,West,270,0.0,0.0,86,0.00,CLR,,0.00,WeatherDisplay:10.37,2013-04-25 08:25:00,
2013-04-25 04:40:00,34.7,30.9,30.31,West,270,0.0,0.0,86,0.00,CLR,,0.00,WeatherDisplay:10.37,2013-04-25 08:40:00,
2013-04-25 04:55:00,34.7,30.9,30.32,West,270,0.0,0.0,86,0.00,CLR,,0.00,WeatherDisplay:10.37,2013-04-25 08:55:00,
2013-04-25 05:25:00,34.4,30.6,30.33,West,270,0.0,0.0,86,0.00,CLR,,0.00,WeatherDisplay:10.37,2013-04-25 09:25:00,
2013-04-25 05:40:00,34.5,30.7,30.34,West,270,0.0,0.0,86,0.00,CLR,,0.00,WeatherDisplay:10.37,2013-04-25 09:40:00,
2013-04-25 05:55:00,34.7,31.2,30.34,West,270,0.0,2.0,87,0.00,CLR,,0.00,WeatherDisplay:10.37,2013-04-25 09:55:00,
2013-04-25 06:25:00,35.0,31.5,30.35,West,270,0.0,2.0,87,0.00,CLR,,0.00,WeatherDisplay:10.37,2013-04-25 10:25:00,
2013-04-25 06:40:00,35.3,31.8,30.35,West,270,0.0,2.0,87,0.00,CLR,,0.00,WeatherDisplay:10.37,2013-04-25 10:40:00,
2013-04-25 06:55:00,36.2,32.7,30.35,West,270,0.0,3.0,87,0.00,CLR,,0.00,WeatherDisplay:10.37,2013-04-25 10:55:00,
2013-04-25 07:25:00,37.6,33.5,30.36,West,277,1.0,3.0,85,0.00,CLR,,0.00,WeatherDisplay:10.37,2013-04-25 11:25:00,
2013-04-25 07:40:00,38.7,34.3,30.36,West,277,1.0,3.0,84,0.00,CLR,,0.00,WeatherDisplay:10.37,2013-04-25 11:40:00,
2013-04-25 07:55:00,40.1,35.0,30.36,West,270,0.0,4.0,82,0.00,CLR,,0.00,WeatherDisplay:10.37,2013-04-25 11:55:00,
2013-04-25 08:25:00,43.3,34.2,30.36,West,277,1.0,5.0,70,0.00,CLR,,0.00,WeatherDisplay:10.37,2013-04-25 12:25:00,
2013-04-25 08:40:00,44.3,33.7,30.37,West,277,1.0,6.0,66,0.00,CLR,,0.00,WeatherDisplay:10.37,2013-04-25 12:40:00,
2013-04-25 08:55:00,45.0,32.8,30.37,WSW,254,2.0,6.0,62,0.00,CLR,,0.00,WeatherDisplay:10.37,2013-04-25 12:55:00,
2013-04-25 09:25:00,46.5,33.4,30.37,SW,232,2.0,8.0,60,0.00,CLR,,0.00,WeatherDisplay:10.37,2013-04-25 13:25:00,
2013-04-25 09:40:00,46.8,33.6,30.37,SW,232,2.0,9.0,60,0.00,CLR,,0.00,WeatherDisplay:10.37,2013-04-25 13:40:00,
2013-04-25 09:55:00,47.8,33.7,30.38,SW,232,2.0,9.0,58,0.00,CLR,,0.00,WeatherDisplay:10.37,2013-04-25 13:55:00,
2013-04-25 10:25:00,48.5,32.6,30.38,WSW,254,3.0,10.0,54,0.00,CLR,,0.00,WeatherDisplay:10.37,2013-04-25 14:25:00,
2013-04-25 10:40:00,49.9,34.4,30.38,WSW,254,2.0,11.0,55,0.00,CLR,,0.00,WeatherDisplay:10.37,2013-04-25 14:40:00,
2013-04-25 10:55:00,50.6,35.0,30.38,WSW,254,2.0,13.0,55,0.00,CLR,,0.00,WeatherDisplay:10.37,2013-04-25 14:55:00,
2013-04-25 11:25:00,51.6,34.5,30.38,WSW,254,2.0,13.0,52,0.00,CLR,,0.00,WeatherDisplay:10.37,2013-04-25 15:25:00,
2013-04-25 11:40:00,51.4,32.9,30.38,WSW,254,3.0,13.0,49,0.00,CLR,,0.00,WeatherDisplay:10.37,2013-04-25 15:40:00,
2013-04-25 11:55:00,52.4,34.3,30.38,WSW,254,3.0,13.0,50,0.00,CLR,,0.00,WeatherDisplay:10.37,2013-04-25 15:55:00,
2013-04-25 12:25:00,53.1,34.9,30.38,SW,232,3.0,12.0,50,0.00,CLR,,0.00,WeatherDisplay:10.37,2013-04-25 16:25:00,
2013-04-25 12:40:00,54.3,35.5,30.37,SW,232,3.0,10.0,49,0.00,CLR,,0.00,WeatherDisplay:10.37,2013-04-25 16:40:00,
2013-04-25 12:55:00,54.2,36.5,30.37,SW,232,3.0,13.0,51,0.00,CLR,,0.00,WeatherDisplay:10.37,2013-04-25 16:55:00,
2013-04-25 13:25:00,55.7,35.8,30.36,WSW,254,3.0,14.0,47,0.00,CLR,,0.00,WeatherDisplay:10.37,2013-04-25 17:25:00,
2013-04-25 13:40:00,55.3,35.9,30.36,SW,232,3.0,12.0,48,0.00,CLR,,0.00,WeatherDisplay:10.37,2013-04-25 17:40:00,
2013-04-25 13:55:00,56.6,36.0,30.35,SW,232,3.0,11.0,46,0.00,CLR,,0.00,WeatherDisplay:10.37,2013-04-25 17:55:00,
2013-04-25 14:25:00,56.7,36.7,30.35,SW,232,3.0,12.0,47,0.00,CLR,,0.00,WeatherDisplay:10.37,2013-04-25 18:25:00,
2013-04-25 14:40:00,57.4,36.8,30.34,SW,232,3.0,12.0,46,0.00,CLR,,0.00,WeatherDisplay:10.37,2013-04-25 18:40:00,
2013-04-25 14:55:00,57.7,37.0,30.34,SW,232,3.0,12.0,46,0.00,CLR,,0.00,WeatherDisplay:10.37,2013-04-25 18:55:00,
2013-04-25 15:25:00,58.9,37.6,30.33,West,277,3.0,11.0,45,0.00,CLR,,0.00,WeatherDisplay:10.37,2013-04-25 19:25:00,
2013-04-25 15:40:00,58.9,35.8,30.33,WSW,254,3.0,18.0,42,0.00,CLR,,0.00,WeatherDisplay:10.37,2013-04-25 19:40:00,
2013-04-25 15:55:00,58.3,37.0,30.33,WSW,254,3.0,18.0,45,0.00,CLR,,0.00,WeatherDisplay:10.37,2013-04-25 19:55:00,
2013-04-25 16:25:00,58.4,37.7,30.33,WSW,254,3.0,13.0,46,0.00,CLR,,0.00,WeatherDisplay:10.37,2013-04-25 20:25:00,
2013-04-25 16:40:00,58.0,36.8,30.33,West,277,3.0,15.0,45,0.00,CLR,,0.00,WeatherDisplay:10.37,2013-04-25 20:40:00,
2013-04-25 16:55:00,57.7,37.6,30.33,WSW,254,3.0,15.0,47,0.00,CLR,,0.00,WeatherDisplay:10.37,2013-04-25 20:55:00,
2013-04-25 17:25:00,58.8,37.5,30.33,West,277,1.0,11.0,45,0.00,CLR,,0.00,WeatherDisplay:10.37,2013-04-25 21:25:00,
2013-04-25 17:40:00,59.0,36.5,30.33,West,277,2.0,7.0,43,0.00,CLR,,0.00,WeatherDisplay:10.37,2013-04-25 21:40:00,
2013-04-25 17:55:00,58.1,36.9,30.34,West,277,2.0,7.0,45,0.00,CLR,,0.00,WeatherDisplay:10.37,2013-04-25 21:55:00,
2013-04-25 18:25:00,57.9,38.3,30.34,West,270,0.0,7.0,48,0.00,CLR,,0.00,WeatherDisplay:10.37,2013-04-25 22:25:00,
2013-04-25 18:40:00,57.7,37.6,30.34,West,270,0.0,4.0,47,0.00,CLR,,0.00,WeatherDisplay:10.37,2013-04-25 22:40:00,
2013-04-25 18:55:00,57.8,37.7,30.34,West,270,0.0,4.0,47,0.00,CLR,,0.00,WeatherDisplay:10.37,2013-04-25 22:55:00,
2013-04-25 19:25:00,56.0,38.1,30.34,West,270,0.0,3.0,51,0.00,CLR,,0.00,WeatherDisplay:10.37,2013-04-25 23:25:00,
2013-04-25 19:40:00,54.9,37.6,30.34,West,270,0.0,2.0,52,0.00,CLR,,0.00,WeatherDisplay:10.37,2013-04-25 23:40:00,
2013-04-25 19:55:00,54.2,36.9,30.35,West,270,0.0,1.0,52,0.00,CLR,,0.00,WeatherDisplay:10.37,2013-04-25 23:55:00,
2013-04-25 20:25:00,53.0,36.8,30.36,West,270,0.0,0.0,54,0.00,CLR,,0.00,WeatherDisplay:10.37,2013-04-26 00:25:00,
2013-04-25 20:40:00,52.2,37.9,30.36,West,270,0.0,0.0,58,0.00,CLR,,0.00,WeatherDisplay:10.37,2013-04-26 00:40:00,
2013-04-25 20:55:00,51.4,37.1,30.38,West,270,0.0,1.0,58,0.00,CLR,,0.00,WeatherDisplay:10.37,2013-04-26 00:55:00,
2013-04-25 21:25:00,50.7,36.5,30.39,West,270,0.0,2.0,58,0.00,CLR,,0.00,WeatherDisplay:10.37,2013-04-26 01:25:00,
2013-04-25 21:40:00,50.4,35.7,30.39,West,270,0.0,1.0,57,0.00,CLR,,0.00,WeatherDisplay:10.37,2013-04-26 01:40:00,
2013-04-25 21:55:00,49.8,35.6,30.40,West,270,0.0,1.0,58,0.00,CLR,,0.00,WeatherDisplay:10.37,2013-04-26 01:55:00,
2013-04-25 22:25:00,49.1,34.9,30.40,West,270,0.0,1.0,58,0.00,CLR,,0.00,WeatherDisplay:10.37,2013-04-26 02:25:00,
2013-04-25 22:40:00,48.8,34.7,30.40,West,270,0.0,2.0,58,0.00,CLR,,0.00,WeatherDisplay:10.37,2013-04-26 02:40:00,
2013-04-25 22:55:00,48.7,34.1,30.40,WNW,300,1.0,7.0,57,0.00,CLR,,0.00,WeatherDisplay:10.37,2013-04-26 02:55:00,
2013-04-25 23:25:00,47.1,33.5,30.41,NE,52,1.0,7.0,59,0.00,CLR,,0.00,WeatherDisplay:10.37,2013-04-26 03:25:00,
2013-04-25 23:40:00,46.8,33.6,30.41,NE,52,1.0,4.0,60,0.00,CLR,,0.00,WeatherDisplay:10.37,2013-04-26 03:40:00,
2013-04-25 23:55:00,46.5,32.9,30.42,NE,52,2.0,6.0,59,0.00,CLR,,0.00,WeatherDisplay:10.37,2013-04-26 03:55:00,